PAOH

Details ICAO PAOH (HNH)
Name Hoonah
Region USA (Alaska)
Timezone America/Juneau (UTC-8.0)
Plans Departing 12
Arriving 13
Stats Elevation 30 ft / 9 m (AMSL)
Location 58.097715° -135.405136°
Runways 1
Magnetic Variation 18.876° E
Sunrise 2018-05-25 12:19:00 UTC / 2018-05-25 04:19:00 Local
Sunset 2018-05-26 05:41:03 UTC / 2018-05-25 21:41:03 Local
Advertisement - Login to hide

Runways

ID Width Length Bearing (true) Bearing (mag) Surface Threshold Offset Overrun Length
05 75 ft / 23 m 3,003 ft / 915 m 77.99° 59.11° Asphalt 0 ft / 0 m 0 ft / 0 m
23 75 ft / 23 m 3,003 ft / 915 m 258.01° 239.13° Asphalt 0 ft / 0 m 0 ft / 0 m

Map

Weather


0- 5 10 15 20 25 30 35+ Temperature / ° C

Clouds and Precipitation
Forecast for 2018-05-26 06:00 UTC. Updated 2 hours ago

Ground ~20,000 ft ~40,000 ft Winds

METAR

PAOH 260643Z AUTO 00000KT 4SM -RA BR BKN005 BKN012 OVC023 07/06 A2984 RMK AO2 CIG 003V009 P0001

TAF

Not found
Warning: Do not use this data for real-world aviation or navigation. No guarantee of current accuracy is given.